sensor_id;sensor_type;location;lat;lon;timestamp;P1;durP1;ratioP1;P2;durP2;ratioP2
74309;SDS011;62722;51.142;17.052;2023-04-22T00:00:55;12.82;;;7.50;;
74309;SDS011;62722;51.142;17.052;2023-04-22T00:03:23;12.45;;;7.10;;
74309;SDS011;62722;51.142;17.052;2023-04-22T00:05:50;15.20;;;7.35;;
74309;SDS011;62722;51.142;17.052;2023-04-22T00:08:19;14.45;;;7.65;;
74309;SDS011;62722;51.142;17.052;2023-04-22T00:10:47;12.75;;;7.60;;
74309;SDS011;62722;51.142;17.052;2023-04-22T00:13:14;13.68;;;7.75;;
74309;SDS011;62722;51.142;17.052;2023-04-22T00:15:41;14.07;;;7.63;;
74309;SDS011;62722;51.142;17.052;2023-04-22T00:18:09;13.82;;;7.30;;
74309;SDS011;62722;51.142;17.052;2023-04-22T00:20:39;13.43;;;7.88;;
74309;SDS011;62722;51.142;17.052;2023-04-22T00:23:07;12.65;;;6.97;;
74309;SDS011;62722;51.142;17.052;2023-04-22T00:25:36;14.70;;;7.25;;
74309;SDS011;62722;51.142;17.052;2023-04-22T00:28:03;12.98;;;6.93;;
74309;SDS011;62722;51.142;17.052;2023-04-22T00:30:30;15.55;;;7.50;;
74309;SDS011;62722;51.142;17.052;2023-04-22T00:32:58;14.00;;;8.07;;
74309;SDS011;62722;51.142;17.052;2023-04-22T00:35:25;19.83;;;10.10;;
74309;SDS011;62722;51.142;17.052;2023-04-22T00:37:53;16.90;;;8.95;;
74309;SDS011;62722;51.142;17.052;2023-04-22T00:40:20;16.52;;;8.52;;
74309;SDS011;62722;51.142;17.052;2023-04-22T00:42:49;13.52;;;7.72;;
74309;SDS011;62722;51.142;17.052;2023-04-22T00:45:18;14.65;;;8.43;;
74309;SDS011;62722;51.142;17.052;2023-04-22T00:47:46;17.58;;;8.63;;
74309;SDS011;62722;51.142;17.052;2023-04-22T00:50:14;15.95;;;8.40;;
74309;SDS011;62722;51.142;17.052;2023-04-22T00:52:41;17.95;;;9.82;;
74309;SDS011;62722;51.142;17.052;2023-04-22T00:55:09;18.42;;;9.88;;
74309;SDS011;62722;51.142;17.052;2023-04-22T00:57:37;16.95;;;8.45;;
74309;SDS011;62722;51.142;17.052;2023-04-22T01:00:07;15.35;;;8.85;;
74309;SDS011;62722;51.142;17.052;2023-04-22T01:02:35;18.38;;;8.70;;
74309;SDS011;62722;51.142;17.052;2023-04-22T01:05:03;14.73;;;8.88;;
74309;SDS011;62722;51.142;17.052;2023-04-22T01:07:34;19.20;;;9.45;;
74309;SDS011;62722;51.142;17.052;2023-04-22T01:10:02;19.50;;;8.80;;
74309;SDS011;62722;51.142;17.052;2023-04-22T01:12:30;18.23;;;10.02;;
74309;SDS011;62722;51.142;17.052;2023-04-22T01:14:57;19.25;;;9.88;;
74309;SDS011;62722;51.142;17.052;2023-04-22T01:17:27;15.40;;;9.48;;
74309;SDS011;62722;51.142;17.052;2023-04-22T01:19:56;18.00;;;9.60;;
74309;SDS011;62722;51.142;17.052;2023-04-22T01:22:24;18.80;;;9.60;;
74309;SDS011;62722;51.142;17.052;2023-04-22T01:24:55;18.55;;;9.73;;
74309;SDS011;62722;51.142;17.052;2023-04-22T01:27:22;19.98;;;9.68;;
74309;SDS011;62722;51.142;17.052;2023-04-22T01:29:50;18.15;;;9.07;;
74309;SDS011;62722;51.142;17.052;2023-04-22T01:32:18;15.45;;;8.68;;
74309;SDS011;62722;51.142;17.052;2023-04-22T01:34:45;17.85;;;8.85;;
74309;SDS011;62722;51.142;17.052;2023-04-22T01:37:13;19.48;;;10.20;;
74309;SDS011;62722;51.142;17.052;2023-04-22T01:39:40;17.05;;;9.32;;
74309;SDS011;62722;51.142;17.052;2023-04-22T01:42:09;16.77;;;10.10;;
74309;SDS011;62722;51.142;17.052;2023-04-22T01:44:37;18.45;;;9.95;;
74309;SDS011;62722;51.142;17.052;2023-04-22T01:47:05;20.90;;;9.88;;
74309;SDS011;62722;51.142;17.052;2023-04-22T01:49:32;19.20;;;10.25;;
74309;SDS011;62722;51.142;17.052;2023-04-22T01:51:59;18.60;;;9.80;;
74309;SDS011;62722;51.142;17.052;2023-04-22T01:54:27;18.67;;;9.00;;
74309;SDS011;62722;51.142;17.052;2023-04-22T01:56:54;18.10;;;9.95;;
74309;SDS011;62722;51.142;17.052;2023-04-22T01:59:24;20.98;;;9.77;;
74309;SDS011;62722;51.142;17.052;2023-04-22T02:01:51;16.13;;;9.45;;
74309;SDS011;62722;51.142;17.052;2023-04-22T02:04:19;17.38;;;9.82;;
74309;SDS011;62722;51.142;17.052;2023-04-22T02:06:46;19.88;;;9.40;;
74309;SDS011;62722;51.142;17.052;2023-04-22T02:09:13;18.70;;;10.70;;
74309;SDS011;62722;51.142;17.052;2023-04-22T02:11:40;18.50;;;9.40;;
74309;SDS011;62722;51.142;17.052;2023-04-22T02:14:08;22.38;;;10.63;;
74309;SDS011;62722;51.142;17.052;2023-04-22T02:16:36;18.05;;;9.80;;
74309;SDS011;62722;51.142;17.052;2023-04-22T02:19:06;16.42;;;9.10;;
74309;SDS011;62722;51.142;17.052;2023-04-22T02:21:33;18.45;;;9.18;;
74309;SDS011;62722;51.142;17.052;2023-04-22T02:24:01;17.52;;;9.73;;
74309;SDS011;62722;51.142;17.052;2023-04-22T02:26:28;19.40;;;10.07;;
74309;SDS011;62722;51.142;17.052;2023-04-22T02:28:55;17.15;;;9.05;;
74309;SDS011;62722;51.142;17.052;2023-04-22T02:31:22;18.95;;;9.73;;
74309;SDS011;62722;51.142;17.052;2023-04-22T02:33:51;19.98;;;9.77;;
74309;SDS011;62722;51.142;17.052;2023-04-22T02:36:18;16.67;;;9.52;;
74309;SDS011;62722;51.142;17.052;2023-04-22T02:38:46;18.15;;;9.90;;
74309;SDS011;62722;51.142;17.052;2023-04-22T02:41:13;18.48;;;8.88;;
74309;SDS011;62722;51.142;17.052;2023-04-22T02:43:41;18.10;;;9.55;;
74309;SDS011;62722;51.142;17.052;2023-04-22T02:46:10;17.50;;;8.93;;
74309;SDS011;62722;51.142;17.052;2023-04-22T02:48:40;17.95;;;9.35;;
74309;SDS011;62722;51.142;17.052;2023-04-22T02:51:09;19.65;;;8.85;;
74309;SDS011;62722;51.142;17.052;2023-04-22T02:53:37;15.18;;;9.55;;
74309;SDS011;62722;51.142;17.052;2023-04-22T02:56:04;16.08;;;9.43;;
74309;SDS011;62722;51.142;17.052;2023-04-22T02:58:33;17.08;;;9.50;;
74309;SDS011;62722;51.142;17.052;2023-04-22T03:01:00;17.58;;;10.10;;
74309;SDS011;62722;51.142;17.052;2023-04-22T03:03:28;18.52;;;8.88;;
74309;SDS011;62722;51.142;17.052;2023-04-22T03:05:56;19.63;;;10.05;;
74309;SDS011;62722;51.142;17.052;2023-04-22T03:08:25;17.90;;;9.70;;
74309;SDS011;62722;51.142;17.052;2023-04-22T03:10:52;20.55;;;10.80;;
74309;SDS011;62722;51.142;17.052;2023-04-22T03:13:19;18.30;;;9.63;;
74309;SDS011;62722;51.142;17.052;2023-04-22T03:15:47;17.27;;;9.57;;
74309;SDS011;62722;51.142;17.052;2023-04-22T03:18:14;17.60;;;9.68;;
74309;SDS011;62722;51.142;17.052;2023-04-22T03:20:41;16.67;;;9.98;;
74309;SDS011;62722;51.142;17.052;2023-04-22T03:23:09;19.00;;;9.30;;
74309;SDS011;62722;51.142;17.052;2023-04-22T03:25:37;18.23;;;10.63;;
74309;SDS011;62722;51.142;17.052;2023-04-22T03:28:05;17.40;;;9.18;;
74309;SDS011;62722;51.142;17.052;2023-04-22T03:30:33;16.77;;;8.43;;
74309;SDS011;62722;51.142;17.052;2023-04-22T03:33:00;17.40;;;9.20;;
74309;SDS011;62722;51.142;17.052;2023-04-22T03:35:27;20.63;;;10.23;;
74309;SDS011;62722;51.142;17.052;2023-04-22T03:37:55;17.05;;;9.80;;
74309;SDS011;62722;51.142;17.052;2023-04-22T03:40:22;16.60;;;9.52;;
74309;SDS011;62722;51.142;17.052;2023-04-22T03:42:51;18.70;;;9.95;;
74309;SDS011;62722;51.142;17.052;2023-04-22T03:45:18;19.92;;;10.60;;
74309;SDS011;62722;51.142;17.052;2023-04-22T03:47:46;19.20;;;9.85;;
74309;SDS011;62722;51.142;17.052;2023-04-22T03:50:13;20.92;;;9.98;;
74309;SDS011;62722;51.142;17.052;2023-04-22T03:52:40;20.63;;;10.02;;
74309;SDS011;62722;51.142;17.052;2023-04-22T03:55:08;17.70;;;10.05;;
74309;SDS011;62722;51.142;17.052;2023-04-22T03:57:35;19.73;;;10.48;;
74309;SDS011;62722;51.142;17.052;2023-04-22T04:00:05;20.05;;;10.68;;
74309;SDS011;62722;51.142;17.052;2023-04-22T04:02:33;20.50;;;10.73;;
74309;SDS011;62722;51.142;17.052;2023-04-22T04:05:00;18.42;;;9.65;;
74309;SDS011;62722;51.142;17.052;2023-04-22T04:07:28;16.25;;;9.13;;
74309;SDS011;62722;51.142;17.052;2023-04-22T04:09:55;17.38;;;9.27;;
74309;SDS011;62722;51.142;17.052;2023-04-22T04:12:22;18.02;;;9.77;;
74309;SDS011;62722;51.142;17.052;2023-04-22T04:14:49;23.02;;;9.43;;
74309;SDS011;62722;51.142;17.052;2023-04-22T04:17:18;21.58;;;9.90;;
74309;SDS011;62722;51.142;17.052;2023-04-22T04:19:46;21.75;;;10.43;;
74309;SDS011;62722;51.142;17.052;2023-04-22T04:22:13;22.10;;;9.82;;
74309;SDS011;62722;51.142;17.052;2023-04-22T04:24:40;20.45;;;10.70;;
74309;SDS011;62722;51.142;17.052;2023-04-22T04:27:08;16.88;;;9.23;;
74309;SDS011;62722;51.142;17.052;2023-04-22T04:29:36;16.58;;;8.88;;
74309;SDS011;62722;51.142;17.052;2023-04-22T04:32:04;19.52;;;10.00;;
74309;SDS011;62722;51.142;17.052;2023-04-22T04:34:34;22.00;;;11.48;;
74309;SDS011;62722;51.142;17.052;2023-04-22T04:37:02;23.33;;;12.13;;
74309;SDS011;62722;51.142;17.052;2023-04-22T04:39:29;21.10;;;11.50;;
74309;SDS011;62722;51.142;17.052;2023-04-22T04:41:57;22.08;;;10.82;;
74309;SDS011;62722;51.142;17.052;2023-04-22T04:44:24;20.90;;;10.88;;
74309;SDS011;62722;51.142;17.052;2023-04-22T04:46:52;20.35;;;10.00;;
74309;SDS011;62722;51.142;17.052;2023-04-22T04:49:20;20.58;;;10.23;;
74309;SDS011;62722;51.142;17.052;2023-04-22T04:51:49;21.02;;;10.30;;
74309;SDS011;62722;51.142;17.052;2023-04-22T04:54:16;18.77;;;9.48;;
74309;SDS011;62722;51.142;17.052;2023-04-22T04:56:44;20.45;;;9.68;;
74309;SDS011;62722;51.142;17.052;2023-04-22T04:59:11;16.83;;;9.48;;
74309;SDS011;62722;51.142;17.052;2023-04-22T05:01:38;17.83;;;8.82;;
74309;SDS011;62722;51.142;17.052;2023-04-22T05:04:05;16.48;;;9.02;;
74309;SDS011;62722;51.142;17.052;2023-04-22T05:06:33;14.75;;;8.15;;
74309;SDS011;62722;51.142;17.052;2023-04-22T05:09:02;22.05;;;9.10;;
74309;SDS011;62722;51.142;17.052;2023-04-22T05:11:29;15.73;;;8.85;;
74309;SDS011;62722;51.142;17.052;2023-04-22T05:13:56;15.90;;;8.40;;
74309;SDS011;62722;51.142;17.052;2023-04-22T05:16:24;15.23;;;7.50;;
74309;SDS011;62722;51.142;17.052;2023-04-22T05:18:51;16.08;;;8.27;;
74309;SDS011;62722;51.142;17.052;2023-04-22T05:21:19;15.70;;;8.18;;
74309;SDS011;62722;51.142;17.052;2023-04-22T05:23:47;17.02;;;9.10;;
74309;SDS011;62722;51.142;17.052;2023-04-22T05:26:15;14.93;;;8.02;;
74309;SDS011;62722;51.142;17.052;2023-04-22T05:28:43;16.75;;;8.93;;
74309;SDS011;62722;51.142;17.052;2023-04-22T05:31:10;15.45;;;8.25;;
74309;SDS011;62722;51.142;17.052;2023-04-22T05:33:37;13.60;;;8.10;;
74309;SDS011;62722;51.142;17.052;2023-04-22T05:36:05;15.68;;;9.02;;
74309;SDS011;62722;51.142;17.052;2023-04-22T05:38:33;15.32;;;8.60;;
74309;SDS011;62722;51.142;17.052;2023-04-22T05:41:00;15.75;;;8.70;;
74309;SDS011;62722;51.142;17.052;2023-04-22T05:43:29;17.80;;;9.30;;
74309;SDS011;62722;51.142;17.052;2023-04-22T05:45:56;17.02;;;8.30;;
74309;SDS011;62722;51.142;17.052;2023-04-22T05:48:23;17.13;;;8.60;;
74309;SDS011;62722;51.142;17.052;2023-04-22T05:50:51;17.70;;;10.00;;
74309;SDS011;62722;51.142;17.052;2023-04-22T05:53:20;18.58;;;9.30;;
74309;SDS011;62722;51.142;17.052;2023-04-22T05:55:48;17.15;;;8.88;;
74309;SDS011;62722;51.142;17.052;2023-04-22T05:58:16;15.68;;;8.82;;
74309;SDS011;62722;51.142;17.052;2023-04-22T06:00:45;15.07;;;8.50;;
74309;SDS011;62722;51.142;17.052;2023-04-22T06:03:12;16.90;;;8.40;;
74309;SDS011;62722;51.142;17.052;2023-04-22T06:05:39;15.68;;;8.80;;
74309;SDS011;62722;51.142;17.052;2023-04-22T06:08:08;17.38;;;8.02;;
74309;SDS011;62722;51.142;17.052;2023-04-22T06:10:36;17.35;;;8.23;;
74309;SDS011;62722;51.142;17.052;2023-04-22T06:13:03;14.48;;;8.35;;
74309;SDS011;62722;51.142;17.052;2023-04-22T06:15:32;14.30;;;8.13;;
74309;SDS011;62722;51.142;17.052;2023-04-22T06:18:01;15.07;;;8.18;;
74309;SDS011;62722;51.142;17.052;2023-04-22T06:20:29;16.10;;;9.18;;
74309;SDS011;62722;51.142;17.052;2023-04-22T06:22:57;15.70;;;8.70;;
74309;SDS011;62722;51.142;17.052;2023-04-22T06:25:26;17.73;;;8.75;;
74309;SDS011;62722;51.142;17.052;2023-04-22T06:27:54;15.55;;;8.43;;
74309;SDS011;62722;51.142;17.052;2023-04-22T06:30:21;15.55;;;8.23;;
74309;SDS011;62722;51.142;17.052;2023-04-22T06:32:49;14.63;;;7.25;;
74309;SDS011;62722;51.142;17.052;2023-04-22T06:35:19;16.67;;;7.47;;
74309;SDS011;62722;51.142;17.052;2023-04-22T06:37:46;16.33;;;8.25;;
74309;SDS011;62722;51.142;17.052;2023-04-22T06:40:14;15.43;;;8.13;;
74309;SDS011;62722;51.142;17.052;2023-04-22T06:42:41;13.35;;;7.80;;
74309;SDS011;62722;51.142;17.052;2023-04-22T06:45:09;15.90;;;7.90;;
74309;SDS011;62722;51.142;17.052;2023-04-22T06:47:37;15.75;;;8.27;;
74309;SDS011;62722;51.142;17.052;2023-04-22T06:50:05;15.35;;;8.43;;
74309;SDS011;62722;51.142;17.052;2023-04-22T06:52:34;14.18;;;7.82;;
74309;SDS011;62722;51.142;17.052;2023-04-22T06:55:02;13.95;;;8.88;;
74309;SDS011;62722;51.142;17.052;2023-04-22T06:57:30;14.70;;;8.20;;
74309;SDS011;62722;51.142;17.052;2023-04-22T06:59:57;14.85;;;8.65;;
74309;SDS011;62722;51.142;17.052;2023-04-22T07:02:25;14.05;;;7.60;;
74309;SDS011;62722;51.142;17.052;2023-04-22T07:04:52;13.27;;;8.32;;
74309;SDS011;62722;51.142;17.052;2023-04-22T07:07:19;15.25;;;8.05;;
74309;SDS011;62722;51.142;17.052;2023-04-22T07:09:49;13.50;;;8.23;;
74309;SDS011;62722;51.142;17.052;2023-04-22T07:12:16;15.73;;;7.93;;
74309;SDS011;62722;51.142;17.052;2023-04-22T07:14:43;15.38;;;7.75;;
74309;SDS011;62722;51.142;17.052;2023-04-22T07:17:11;15.52;;;8.13;;
74309;SDS011;62722;51.142;17.052;2023-04-22T07:19:39;12.90;;;7.30;;
74309;SDS011;62722;51.142;17.052;2023-04-22T07:22:06;13.73;;;8.52;;
74309;SDS011;62722;51.142;17.052;2023-04-22T07:24:34;14.38;;;7.55;;
74309;SDS011;62722;51.142;17.052;2023-04-22T07:27:03;13.18;;;7.75;;
74309;SDS011;62722;51.142;17.052;2023-04-22T07:29:30;16.58;;;7.60;;
74309;SDS011;62722;51.142;17.052;2023-04-22T07:31:58;12.43;;;7.15;;
74309;SDS011;62722;51.142;17.052;2023-04-22T07:34:25;14.30;;;7.30;;
74309;SDS011;62722;51.142;17.052;2023-04-22T07:36:53;13.10;;;6.80;;
74309;SDS011;62722;51.142;17.052;2023-04-22T07:39:21;13.18;;;7.72;;
74309;SDS011;62722;51.142;17.052;2023-04-22T07:41:48;11.85;;;6.97;;
74309;SDS011;62722;51.142;17.052;2023-04-22T07:44:17;11.85;;;6.68;;
74309;SDS011;62722;51.142;17.052;2023-04-22T07:46:45;14.02;;;6.78;;
74309;SDS011;62722;51.142;17.052;2023-04-22T07:49:13;11.82;;;7.45;;
74309;SDS011;62722;51.142;17.052;2023-04-22T07:51:42;15.15;;;7.40;;
74309;SDS011;62722;51.142;17.052;2023-04-22T07:54:09;12.57;;;6.75;;
74309;SDS011;62722;51.142;17.052;2023-04-22T07:56:37;12.93;;;6.97;;
74309;SDS011;62722;51.142;17.052;2023-04-22T07:59:04;14.35;;;7.68;;
74309;SDS011;62722;51.142;17.052;2023-04-22T08:01:33;12.95;;;7.15;;
74309;SDS011;62722;51.142;17.052;2023-04-22T08:04:00;10.75;;;6.55;;
74309;SDS011;62722;51.142;17.052;2023-04-22T08:06:28;12.02;;;6.93;;
74309;SDS011;62722;51.142;17.052;2023-04-22T08:08:55;11.20;;;6.97;;
74309;SDS011;62722;51.142;17.052;2023-04-22T08:11:22;12.38;;;6.93;;
74309;SDS011;62722;51.142;17.052;2023-04-22T08:13:50;11.57;;;6.43;;
74309;SDS011;62722;51.142;17.052;2023-04-22T08:16:17;12.88;;;6.82;;
74309;SDS011;62722;51.142;17.052;2023-04-22T08:18:47;13.52;;;6.75;;
74309;SDS011;62722;51.142;17.052;2023-04-22T08:21:14;13.52;;;7.05;;
74309;SDS011;62722;51.142;17.052;2023-04-22T08:23:41;12.02;;;6.55;;
74309;SDS011;62722;51.142;17.052;2023-04-22T08:26:08;10.25;;;6.80;;
74309;SDS011;62722;51.142;17.052;2023-04-22T08:28:39;11.13;;;7.00;;
74309;SDS011;62722;51.142;17.052;2023-04-22T08:31:07;12.90;;;6.50;;
74309;SDS011;62722;51.142;17.052;2023-04-22T08:33:36;11.63;;;6.75;;
74309;SDS011;62722;51.142;17.052;2023-04-22T08:36:05;12.15;;;6.68;;
74309;SDS011;62722;51.142;17.052;2023-04-22T08:38:33;10.40;;;6.65;;
74309;SDS011;62722;51.142;17.052;2023-04-22T08:41:00;11.70;;;5.78;;
74309;SDS011;62722;51.142;17.052;2023-04-22T08:43:31;10.20;;;5.53;;
74309;SDS011;62722;51.142;17.052;2023-04-22T08:45:59;10.00;;;5.18;;
74309;SDS011;62722;51.142;17.052;2023-04-22T08:48:26;12.90;;;6.28;;
74309;SDS011;62722;51.142;17.052;2023-04-22T08:50:54;9.07;;;5.65;;
74309;SDS011;62722;51.142;17.052;2023-04-22T08:53:22;11.88;;;5.85;;
74309;SDS011;62722;51.142;17.052;2023-04-22T08:55:50;11.38;;;6.60;;
74309;SDS011;62722;51.142;17.052;2023-04-22T08:58:17;9.32;;;5.55;;
74309;SDS011;62722;51.142;17.052;2023-04-22T09:00:44;8.77;;;5.40;;
74309;SDS011;62722;51.142;17.052;2023-04-22T09:03:12;10.15;;;5.25;;
74309;SDS011;62722;51.142;17.052;2023-04-22T09:05:41;9.52;;;5.00;;
74309;SDS011;62722;51.142;17.052;2023-04-22T09:08:09;8.15;;;5.22;;
74309;SDS011;62722;51.142;17.052;2023-04-22T09:10:38;8.88;;;5.30;;
74309;SDS011;62722;51.142;17.052;2023-04-22T09:13:06;7.80;;;4.05;;
74309;SDS011;62722;51.142;17.052;2023-04-22T09:15:33;7.70;;;4.57;;
74309;SDS011;62722;51.142;17.052;2023-04-22T09:18:00;9.70;;;4.40;;
74309;SDS011;62722;51.142;17.052;2023-04-22T09:20:29;9.10;;;4.72;;
74309;SDS011;62722;51.142;17.052;2023-04-22T09:23:01;7.63;;;4.70;;
74309;SDS011;62722;51.142;17.052;2023-04-22T09:25:31;8.65;;;5.15;;
74309;SDS011;62722;51.142;17.052;2023-04-22T09:28:01;8.02;;;4.93;;
74309;SDS011;62722;51.142;17.052;2023-04-22T09:30:29;9.02;;;5.28;;
74309;SDS011;62722;51.142;17.052;2023-04-22T09:32:58;9.13;;;5.80;;
74309;SDS011;62722;51.142;17.052;2023-04-22T09:35:29;8.85;;;4.70;;
74309;SDS011;62722;51.142;17.052;2023-04-22T09:37:58;8.75;;;4.78;;
74309;SDS011;62722;51.142;17.052;2023-04-22T09:40:29;7.43;;;4.32;;
74309;SDS011;62722;51.142;17.052;2023-04-22T09:42:59;7.78;;;4.68;;
74309;SDS011;62722;51.142;17.052;2023-04-22T09:45:29;9.65;;;4.80;;
74309;SDS011;62722;51.142;17.052;2023-04-22T09:47:59;7.57;;;4.40;;
74309;SDS011;62722;51.142;17.052;2023-04-22T09:50:32;10.10;;;4.82;;
74309;SDS011;62722;51.142;17.052;2023-04-22T09:53:00;8.02;;;4.80;;
74309;SDS011;62722;51.142;17.052;2023-04-22T09:55:29;6.15;;;3.95;;
74309;SDS011;62722;51.142;17.052;2023-04-22T09:58:03;6.35;;;4.28;;
74309;SDS011;62722;51.142;17.052;2023-04-22T10:00:34;6.53;;;4.18;;
74309;SDS011;62722;51.142;17.052;2023-04-22T10:03:05;6.82;;;3.92;;
74309;SDS011;62722;51.142;17.052;2023-04-22T10:05:33;8.10;;;4.13;;
74309;SDS011;62722;51.142;17.052;2023-04-22T10:08:02;6.57;;;3.92;;
74309;SDS011;62722;51.142;17.052;2023-04-22T10:10:30;7.10;;;4.20;;
74309;SDS011;62722;51.142;17.052;2023-04-22T10:12:58;7.03;;;4.00;;
74309;SDS011;62722;51.142;17.052;2023-04-22T10:15:27;5.50;;;3.75;;
74309;SDS011;62722;51.142;17.052;2023-04-22T10:17:59;8.88;;;4.50;;
74309;SDS011;62722;51.142;17.052;2023-04-22T10:20:28;8.18;;;4.25;;
74309;SDS011;62722;51.142;17.052;2023-04-22T10:22:57;6.20;;;3.75;;
74309;SDS011;62722;51.142;17.052;2023-04-22T10:25:25;7.68;;;4.18;;
74309;SDS011;62722;51.142;17.052;2023-04-22T10:27:53;6.35;;;3.83;;
74309;SDS011;62722;51.142;17.052;2023-04-22T10:30:29;5.38;;;3.78;;
74309;SDS011;62722;51.142;17.052;2023-04-22T10:38:32;8.93;;;3.90;;
74309;SDS011;62722;51.142;17.052;2023-04-22T10:41:00;6.15;;;3.53;;
74309;SDS011;62722;51.142;17.052;2023-04-22T10:43:41;8.43;;;3.97;;
74309;SDS011;62722;51.142;17.052;2023-04-22T10:49:16;6.70;;;4.05;;
74309;SDS011;62722;51.142;17.052;2023-04-22T10:57:15;8.00;;;4.03;;
74309;SDS011;62722;51.142;17.052;2023-04-22T10:59:48;5.95;;;3.15;;
74309;SDS011;62722;51.142;17.052;2023-04-22T11:02:19;6.88;;;3.80;;
74309;SDS011;62722;51.142;17.052;2023-04-22T11:04:49;6.65;;;4.07;;
74309;SDS011;62722;51.142;17.052;2023-04-22T11:07:28;6.35;;;3.55;;
74309;SDS011;62722;51.142;17.052;2023-04-22T11:09:58;6.47;;;3.80;;
74309;SDS011;62722;51.142;17.052;2023-04-22T11:12:42;7.07;;;3.90;;
74309;SDS011;62722;51.142;17.052;2023-04-22T11:15:10;5.90;;;3.78;;
74309;SDS011;62722;51.142;17.052;2023-04-22T11:17:41;7.95;;;4.30;;
74309;SDS011;62722;51.142;17.052;2023-04-22T11:20:11;6.78;;;3.83;;
74309;SDS011;62722;51.142;17.052;2023-04-22T11:22:42;6.00;;;3.38;;
74309;SDS011;62722;51.142;17.052;2023-04-22T11:25:11;5.93;;;3.75;;
74309;SDS011;62722;51.142;17.052;2023-04-22T11:27:39;6.25;;;3.35;;
74309;SDS011;62722;51.142;17.052;2023-04-22T11:30:09;8.52;;;3.75;;
74309;SDS011;62722;51.142;17.052;2023-04-22T11:32:40;5.03;;;3.25;;
74309;SDS011;62722;51.142;17.052;2023-04-22T11:35:09;6.93;;;3.42;;
74309;SDS011;62722;51.142;17.052;2023-04-22T11:37:38;5.30;;;3.45;;
74309;SDS011;62722;51.142;17.052;2023-04-22T11:40:07;4.93;;;3.05;;
74309;SDS011;62722;51.142;17.052;2023-04-22T11:42:36;8.15;;;3.55;;
74309;SDS011;62722;51.142;17.052;2023-04-22T11:45:04;4.43;;;2.95;;
74309;SDS011;62722;51.142;17.052;2023-04-22T11:47:33;4.78;;;3.00;;
74309;SDS011;62722;51.142;17.052;2023-04-22T11:50:02;4.35;;;2.90;;
74309;SDS011;62722;51.142;17.052;2023-04-22T11:52:46;5.15;;;3.25;;
74309;SDS011;62722;51.142;17.052;2023-04-22T11:55:15;5.55;;;3.10;;
74309;SDS011;62722;51.142;17.052;2023-04-22T11:57:45;5.65;;;3.40;;
74309;SDS011;62722;51.142;17.052;2023-04-22T12:00:19;8.98;;;3.90;;
74309;SDS011;62722;51.142;17.052;2023-04-22T12:02:53;6.35;;;3.22;;
74309;SDS011;62722;51.142;17.052;2023-04-22T12:05:32;5.45;;;3.33;;
74309;SDS011;62722;51.142;17.052;2023-04-22T12:08:02;4.88;;;3.30;;
74309;SDS011;62722;51.142;17.052;2023-04-22T12:10:32;5.68;;;3.58;;
74309;SDS011;62722;51.142;17.052;2023-04-22T12:12:59;5.72;;;3.15;;
74309;SDS011;62722;51.142;17.052;2023-04-22T12:15:36;5.65;;;3.10;;
74309;SDS011;62722;51.142;17.052;2023-04-22T12:18:07;5.68;;;3.42;;
74309;SDS011;62722;51.142;17.052;2023-04-22T12:20:37;5.75;;;3.40;;
74309;SDS011;62722;51.142;17.052;2023-04-22T12:23:11;7.85;;;3.40;;
74309;SDS011;62722;51.142;17.052;2023-04-22T12:25:41;6.63;;;4.13;;
74309;SDS011;62722;51.142;17.052;2023-04-22T12:28:09;5.78;;;4.03;;
74309;SDS011;62722;51.142;17.052;2023-04-22T12:30:37;6.30;;;3.75;;
74309;SDS011;62722;51.142;17.052;2023-04-22T12:33:05;9.73;;;3.95;;
74309;SDS011;62722;51.142;17.052;2023-04-22T12:35:32;8.05;;;3.97;;
74309;SDS011;62722;51.142;17.052;2023-04-22T12:38:00;6.70;;;4.15;;
74309;SDS011;62722;51.142;17.052;2023-04-22T12:40:29;6.22;;;3.60;;
74309;SDS011;62722;51.142;17.052;2023-04-22T12:42:56;5.00;;;3.55;;
74309;SDS011;62722;51.142;17.052;2023-04-22T12:45:23;6.25;;;3.67;;
74309;SDS011;62722;51.142;17.052;2023-04-22T12:47:50;6.63;;;3.75;;
74309;SDS011;62722;51.142;17.052;2023-04-22T12:50:20;5.90;;;3.80;;
74309;SDS011;62722;51.142;17.052;2023-04-22T12:52:47;6.35;;;3.88;;
74309;SDS011;62722;51.142;17.052;2023-04-22T12:55:14;5.03;;;3.38;;
74309;SDS011;62722;51.142;17.052;2023-04-22T12:57:46;5.70;;;3.28;;
74309;SDS011;62722;51.142;17.052;2023-04-22T13:00:15;3.20;;;2.50;;
74309;SDS011;62722;51.142;17.052;2023-04-22T13:02:43;5.35;;;2.95;;
74309;SDS011;62722;51.142;17.052;2023-04-22T13:05:14;5.10;;;3.33;;
74309;SDS011;62722;51.142;17.052;2023-04-22T13:07:43;4.95;;;3.10;;
74309;SDS011;62722;51.142;17.052;2023-04-22T13:10:12;5.45;;;2.90;;
74309;SDS011;62722;51.142;17.052;2023-04-22T13:12:41;5.95;;;3.15;;
74309;SDS011;62722;51.142;17.052;2023-04-22T13:15:11;6.03;;;3.40;;
74309;SDS011;62722;51.142;17.052;2023-04-22T13:17:38;5.95;;;2.83;;
74309;SDS011;62722;51.142;17.052;2023-04-22T13:20:06;6.10;;;2.90;;
74309;SDS011;62722;51.142;17.052;2023-04-22T13:22:36;5.07;;;3.00;;
74309;SDS011;62722;51.142;17.052;2023-04-22T13:25:05;3.88;;;2.75;;
74309;SDS011;62722;51.142;17.052;2023-04-22T13:27:34;4.10;;;2.75;;
74309;SDS011;62722;51.142;17.052;2023-04-22T13:30:03;4.22;;;2.72;;
74309;SDS011;62722;51.142;17.052;2023-04-22T13:32:37;6.32;;;2.70;;
74309;SDS011;62722;51.142;17.052;2023-04-22T13:35:17;4.20;;;2.83;;
74309;SDS011;62722;51.142;17.052;2023-04-22T13:37:45;4.55;;;2.80;;
74309;SDS011;62722;51.142;17.052;2023-04-22T13:40:13;4.88;;;3.10;;
74309;SDS011;62722;51.142;17.052;2023-04-22T13:42:41;5.22;;;3.17;;
74309;SDS011;62722;51.142;17.052;2023-04-22T13:45:09;5.13;;;2.58;;
74309;SDS011;62722;51.142;17.052;2023-04-22T13:47:37;4.75;;;2.50;;
74309;SDS011;62722;51.142;17.052;2023-04-22T13:50:05;4.82;;;2.78;;
74309;SDS011;62722;51.142;17.052;2023-04-22T13:52:34;3.85;;;2.47;;
74309;SDS011;62722;51.142;17.052;2023-04-22T13:55:02;3.95;;;2.38;;
74309;SDS011;62722;51.142;17.052;2023-04-22T13:57:30;6.30;;;3.20;;
74309;SDS011;62722;51.142;17.052;2023-04-22T13:59:58;5.25;;;3.70;;
74309;SDS011;62722;51.142;17.052;2023-04-22T14:02:25;6.18;;;3.42;;
74309;SDS011;62722;51.142;17.052;2023-04-22T14:04:54;5.95;;;3.08;;
74309;SDS011;62722;51.142;17.052;2023-04-22T14:07:23;5.63;;;3.60;;
74309;SDS011;62722;51.142;17.052;2023-04-22T14:09:50;4.82;;;3.05;;
74309;SDS011;62722;51.142;17.052;2023-04-22T14:12:17;4.80;;;2.80;;
74309;SDS011;62722;51.142;17.052;2023-04-22T14:14:45;9.68;;;4.75;;
74309;SDS011;62722;51.142;17.052;2023-04-22T14:17:12;5.18;;;3.05;;
74309;SDS011;62722;51.142;17.052;2023-04-22T14:19:40;4.93;;;2.80;;
74309;SDS011;62722;51.142;17.052;2023-04-22T14:22:10;5.47;;;3.40;;
74309;SDS011;62722;51.142;17.052;2023-04-22T14:24:38;5.88;;;3.28;;
74309;SDS011;62722;51.142;17.052;2023-04-22T14:27:05;4.28;;;2.92;;
74309;SDS011;62722;51.142;17.052;2023-04-22T14:29:32;6.25;;;2.95;;
74309;SDS011;62722;51.142;17.052;2023-04-22T14:32:00;7.50;;;3.17;;
74309;SDS011;62722;51.142;17.052;2023-04-22T14:34:28;5.45;;;2.90;;
74309;SDS011;62722;51.142;17.052;2023-04-22T14:36:55;5.15;;;3.13;;
74309;SDS011;62722;51.142;17.052;2023-04-22T14:39:24;4.50;;;2.90;;
74309;SDS011;62722;51.142;17.052;2023-04-22T14:41:51;4.85;;;2.75;;
74309;SDS011;62722;51.142;17.052;2023-04-22T14:44:20;5.18;;;3.13;;
74309;SDS011;62722;51.142;17.052;2023-04-22T14:46:47;5.25;;;3.10;;